sensor_id;sensor_type;location;lat;lon;timestamp;temperature;humidity
63013;DHT22;62113;45.624;11.700;2023-06-19T00:02:07;26.20;54.30
63013;DHT22;62113;45.624;11.700;2023-06-19T00:04:32;26.20;54.40
63013;DHT22;62113;45.624;11.700;2023-06-19T00:06:59;26.10;54.40
63013;DHT22;62113;45.624;11.700;2023-06-19T00:09:25;26.10;54.50
63013;DHT22;62113;45.624;11.700;2023-06-19T00:11:50;26.10;54.70
63013;DHT22;62113;45.624;11.700;2023-06-19T00:14:15;26.10;54.60
63013;DHT22;62113;45.624;11.700;2023-06-19T00:16:41;26.00;54.60
63013;DHT22;62113;45.624;11.700;2023-06-19T00:19:07;25.90;54.80
63013;DHT22;62113;45.624;11.700;2023-06-19T00:21:32;25.90;54.80
63013;DHT22;62113;45.624;11.700;2023-06-19T00:23:58;25.90;54.80
63013;DHT22;62113;45.624;11.700;2023-06-19T00:26:23;25.80;54.90
63013;DHT22;62113;45.624;11.700;2023-06-19T00:28:51;25.80;55.10
63013;DHT22;62113;45.624;11.700;2023-06-19T00:31:16;25.80;55.20
63013;DHT22;62113;45.624;11.700;2023-06-19T00:33:43;25.80;55.20
63013;DHT22;62113;45.624;11.700;2023-06-19T00:36:09;25.70;55.30
63013;DHT22;62113;45.624;11.700;2023-06-19T00:38:36;25.70;55.30
63013;DHT22;62113;45.624;11.700;2023-06-19T00:41:01;25.70;55.40
63013;DHT22;62113;45.624;11.700;2023-06-19T00:43:27;25.70;55.40
63013;DHT22;62113;45.624;11.700;2023-06-19T00:45:53;25.70;55.50
63013;DHT22;62113;45.624;11.700;2023-06-19T00:48:18;25.70;55.60
63013;DHT22;62113;45.624;11.700;2023-06-19T00:50:44;25.70;55.70
63013;DHT22;62113;45.624;11.700;2023-06-19T00:53:09;25.60;55.60
63013;DHT22;62113;45.624;11.700;2023-06-19T00:55:35;25.60;55.60
63013;DHT22;62113;45.624;11.700;2023-06-19T00:58:01;25.60;55.80
63013;DHT22;62113;45.624;11.700;2023-06-19T01:00:28;25.60;55.70
63013;DHT22;62113;45.624;11.700;2023-06-19T01:02:53;25.60;55.70
63013;DHT22;62113;45.624;11.700;2023-06-19T01:05:19;25.60;55.80
63013;DHT22;62113;45.624;11.700;2023-06-19T01:10:19;25.50;55.80
63013;DHT22;62113;45.624;11.700;2023-06-19T01:12:49;25.50;55.90
63013;DHT22;62113;45.624;11.700;2023-06-19T01:15:17;25.50;55.90
63013;DHT22;62113;45.624;11.700;2023-06-19T01:17:43;25.50;56.00
63013;DHT22;62113;45.624;11.700;2023-06-19T01:20:10;25.50;56.10
63013;DHT22;62113;45.624;11.700;2023-06-19T01:22:36;25.40;56.10
63013;DHT22;62113;45.624;11.700;2023-06-19T01:25:02;25.40;56.10
63013;DHT22;62113;45.624;11.700;2023-06-19T01:27:29;25.40;56.20
63013;DHT22;62113;45.624;11.700;2023-06-19T01:29:55;25.40;56.20
63013;DHT22;62113;45.624;11.700;2023-06-19T01:34:56;25.40;56.30
63013;DHT22;62113;45.624;11.700;2023-06-19T01:37:23;25.40;56.30
63013;DHT22;62113;45.624;11.700;2023-06-19T01:39:52;25.30;56.30
63013;DHT22;62113;45.624;11.700;2023-06-19T01:42:19;25.30;56.50
63013;DHT22;62113;45.624;11.700;2023-06-19T01:44:45;25.30;56.40
63013;DHT22;62113;45.624;11.700;2023-06-19T01:47:11;25.30;56.60
63013;DHT22;62113;45.624;11.700;2023-06-19T01:49:37;25.20;56.60
63013;DHT22;62113;45.624;11.700;2023-06-19T01:52:03;25.20;56.60
63013;DHT22;62113;45.624;11.700;2023-06-19T01:54:28;25.20;56.60
63013;DHT22;62113;45.624;11.700;2023-06-19T01:56:54;25.20;56.60
63013;DHT22;62113;45.624;11.700;2023-06-19T01:59:19;25.20;56.70
63013;DHT22;62113;45.624;11.700;2023-06-19T02:01:46;25.20;56.80
63013;DHT22;62113;45.624;11.700;2023-06-19T02:04:12;25.20;56.80
63013;DHT22;62113;45.624;11.700;2023-06-19T02:06:37;25.20;57.00
63013;DHT22;62113;45.624;11.700;2023-06-19T02:09:03;25.20;57.00
63013;DHT22;62113;45.624;11.700;2023-06-19T02:11:28;25.20;57.00
63013;DHT22;62113;45.624;11.700;2023-06-19T02:13:54;25.10;57.00
63013;DHT22;62113;45.624;11.700;2023-06-19T02:16:19;25.10;57.20
63013;DHT22;62113;45.624;11.700;2023-06-19T02:18:45;25.10;57.10
63013;DHT22;62113;45.624;11.700;2023-06-19T02:21:10;25.10;57.20
63013;DHT22;62113;45.624;11.700;2023-06-19T02:23:35;25.10;57.30
63013;DHT22;62113;45.624;11.700;2023-06-19T02:26:01;25.10;57.30
63013;DHT22;62113;45.624;11.700;2023-06-19T02:28:27;25.10;57.40
63013;DHT22;62113;45.624;11.700;2023-06-19T02:30:53;25.00;57.50
63013;DHT22;62113;45.624;11.700;2023-06-19T02:33:19;25.00;57.40
63013;DHT22;62113;45.624;11.700;2023-06-19T02:35:44;25.00;57.40
63013;DHT22;62113;45.624;11.700;2023-06-19T02:38:10;25.00;57.50
63013;DHT22;62113;45.624;11.700;2023-06-19T02:40:38;24.90;57.70
63013;DHT22;62113;45.624;11.700;2023-06-19T02:43:03;25.00;57.70
63013;DHT22;62113;45.624;11.700;2023-06-19T02:45:29;24.90;57.60
63013;DHT22;62113;45.624;11.700;2023-06-19T02:47:54;24.90;57.60
63013;DHT22;62113;45.624;11.700;2023-06-19T02:50:20;24.90;57.60
63013;DHT22;62113;45.624;11.700;2023-06-19T02:52:45;24.90;57.70
63013;DHT22;62113;45.624;11.700;2023-06-19T02:55:11;24.90;57.70
63013;DHT22;62113;45.624;11.700;2023-06-19T02:57:36;24.90;57.60
63013;DHT22;62113;45.624;11.700;2023-06-19T03:00:02;24.90;57.70
63013;DHT22;62113;45.624;11.700;2023-06-19T03:02:28;24.90;57.70
63013;DHT22;62113;45.624;11.700;2023-06-19T03:04:54;24.90;57.80
63013;DHT22;62113;45.624;11.700;2023-06-19T03:07:19;24.90;57.70
63013;DHT22;62113;45.624;11.700;2023-06-19T03:09:45;24.90;57.70
63013;DHT22;62113;45.624;11.700;2023-06-19T03:12:10;24.90;57.80
63013;DHT22;62113;45.624;11.700;2023-06-19T03:14:36;24.90;57.80
63013;DHT22;62113;45.624;11.700;2023-06-19T03:17:01;24.90;57.90
63013;DHT22;62113;45.624;11.700;2023-06-19T03:19:27;24.90;57.90
63013;DHT22;62113;45.624;11.700;2023-06-19T03:21:52;24.90;58.10
63013;DHT22;62113;45.624;11.700;2023-06-19T03:24:18;24.90;58.00
63013;DHT22;62113;45.624;11.700;2023-06-19T03:26:43;24.90;57.90
63013;DHT22;62113;45.624;11.700;2023-06-19T03:29:09;24.90;58.00
63013;DHT22;62113;45.624;11.700;2023-06-19T03:31:34;25.00;58.00
63013;DHT22;62113;45.624;11.700;2023-06-19T03:34:00;25.00;58.10
63013;DHT22;62113;45.624;11.700;2023-06-19T03:36:25;25.00;58.30
63013;DHT22;62113;45.624;11.700;2023-06-19T03:38:51;25.00;58.00
63013;DHT22;62113;45.624;11.700;2023-06-19T03:41:16;24.90;58.00
63013;DHT22;62113;45.624;11.700;2023-06-19T03:43:42;24.90;58.10
63013;DHT22;62113;45.624;11.700;2023-06-19T03:46:07;24.90;58.10
63013;DHT22;62113;45.624;11.700;2023-06-19T03:48:33;24.90;58.10
63013;DHT22;62113;45.624;11.700;2023-06-19T03:50:58;24.90;58.30
63013;DHT22;62113;45.624;11.700;2023-06-19T03:53:24;24.90;58.10
63013;DHT22;62113;45.624;11.700;2023-06-19T03:55:49;24.90;58.30
63013;DHT22;62113;45.624;11.700;2023-06-19T03:58:15;24.90;58.30
63013;DHT22;62113;45.624;11.700;2023-06-19T04:00:40;24.80;58.60
63013;DHT22;62113;45.624;11.700;2023-06-19T04:03:06;24.80;58.30
63013;DHT22;62113;45.624;11.700;2023-06-19T04:05:32;24.80;58.40
63013;DHT22;62113;45.624;11.700;2023-06-19T04:07:57;24.80;58.60
63013;DHT22;62113;45.624;11.700;2023-06-19T04:10:23;24.80;58.50
63013;DHT22;62113;45.624;11.700;2023-06-19T04:12:48;24.80;58.70
63013;DHT22;62113;45.624;11.700;2023-06-19T04:15:14;24.70;58.50
63013;DHT22;62113;45.624;11.700;2023-06-19T04:17:39;24.80;58.50
63013;DHT22;62113;45.624;11.700;2023-06-19T04:20:05;24.80;58.50
63013;DHT22;62113;45.624;11.700;2023-06-19T04:22:37;24.90;58.50
63013;DHT22;62113;45.624;11.700;2023-06-19T04:25:02;24.90;58.40
63013;DHT22;62113;45.624;11.700;2023-06-19T04:27:28;24.90;58.40
63013;DHT22;62113;45.624;11.700;2023-06-19T04:29:53;24.90;58.50
63013;DHT22;62113;45.624;11.700;2023-06-19T04:32:19;25.00;58.40
63013;DHT22;62113;45.624;11.700;2023-06-19T04:34:44;25.00;58.50
63013;DHT22;62113;45.624;11.700;2023-06-19T04:37:11;25.00;58.30
63013;DHT22;62113;45.624;11.700;2023-06-19T04:39:37;25.10;58.30
63013;DHT22;62113;45.624;11.700;2023-06-19T04:42:02;25.00;58.20
63013;DHT22;62113;45.624;11.700;2023-06-19T04:44:28;25.10;58.10
63013;DHT22;62113;45.624;11.700;2023-06-19T04:46:55;25.10;58.10
63013;DHT22;62113;45.624;11.700;2023-06-19T04:49:27;25.10;58.00
63013;DHT22;62113;45.624;11.700;2023-06-19T04:51:55;25.10;58.10
63013;DHT22;62113;45.624;11.700;2023-06-19T04:54:20;25.20;58.10
63013;DHT22;62113;45.624;11.700;2023-06-19T04:56:46;25.20;58.10
63013;DHT22;62113;45.624;11.700;2023-06-19T04:59:11;25.20;58.00
63013;DHT22;62113;45.624;11.700;2023-06-19T05:01:37;25.20;58.10
63013;DHT22;62113;45.624;11.700;2023-06-19T05:04:05;25.30;58.00
63013;DHT22;62113;45.624;11.700;2023-06-19T05:06:31;25.30;58.00
63013;DHT22;62113;45.624;11.700;2023-06-19T05:08:56;25.30;58.00
63013;DHT22;62113;45.624;11.700;2023-06-19T05:11:22;25.40;57.90
63013;DHT22;62113;45.624;11.700;2023-06-19T05:13:48;25.50;57.90
63013;DHT22;62113;45.624;11.700;2023-06-19T05:16:13;25.60;57.80
63013;DHT22;62113;45.624;11.700;2023-06-19T05:18:41;25.60;57.90
63013;DHT22;62113;45.624;11.700;2023-06-19T05:21:07;25.70;57.50
63013;DHT22;62113;45.624;11.700;2023-06-19T05:23:33;25.80;57.40
63013;DHT22;62113;45.624;11.700;2023-06-19T05:25:58;25.90;57.20
63013;DHT22;62113;45.624;11.700;2023-06-19T05:28:24;26.00;57.10
63013;DHT22;62113;45.624;11.700;2023-06-19T05:30:49;26.10;56.90
63013;DHT22;62113;45.624;11.700;2023-06-19T05:33:15;26.20;56.70
63013;DHT22;62113;45.624;11.700;2023-06-19T05:35:42;26.30;56.80
63013;DHT22;62113;45.624;11.700;2023-06-19T05:38:08;26.50;56.20
63013;DHT22;62113;45.624;11.700;2023-06-19T05:40:34;26.70;56.00
63013;DHT22;62113;45.624;11.700;2023-06-19T05:43:00;26.80;55.50
63013;DHT22;62113;45.624;11.700;2023-06-19T05:45:26;27.00;55.20
63013;DHT22;62113;45.624;11.700;2023-06-19T05:47:52;27.10;54.70
63013;DHT22;62113;45.624;11.700;2023-06-19T05:50:17;27.20;54.30
63013;DHT22;62113;45.624;11.700;2023-06-19T05:52:43;27.30;54.30
63013;DHT22;62113;45.624;11.700;2023-06-19T05:55:09;27.40;53.50
63013;DHT22;62113;45.624;11.700;2023-06-19T05:57:34;27.60;53.20
63013;DHT22;62113;45.624;11.700;2023-06-19T06:00:00;27.70;53.00
63013;DHT22;62113;45.624;11.700;2023-06-19T06:02:25;27.80;52.60
63013;DHT22;62113;45.624;11.700;2023-06-19T06:04:51;28.00;52.20
63013;DHT22;62113;45.624;11.700;2023-06-19T06:07:16;28.20;52.00
63013;DHT22;62113;45.624;11.700;2023-06-19T06:09:42;28.20;51.70
63013;DHT22;62113;45.624;11.700;2023-06-19T06:12:07;28.30;51.60
63013;DHT22;62113;45.624;11.700;2023-06-19T06:14:33;28.40;50.20
63013;DHT22;62113;45.624;11.700;2023-06-19T06:16:58;28.50;50.60
63013;DHT22;62113;45.624;11.700;2023-06-19T06:19:24;28.70;50.30
63013;DHT22;62113;45.624;11.700;2023-06-19T06:21:50;28.90;49.80
63013;DHT22;62113;45.624;11.700;2023-06-19T06:24:15;29.00;49.40
63013;DHT22;62113;45.624;11.700;2023-06-19T06:26:41;29.10;48.00
63013;DHT22;62113;45.624;11.700;2023-06-19T06:29:07;29.00;48.20
63013;DHT22;62113;45.624;11.700;2023-06-19T06:31:33;28.90;48.50
63013;DHT22;62113;45.624;11.700;2023-06-19T06:33:58;28.90;49.00
63013;DHT22;62113;45.624;11.700;2023-06-19T06:36:24;29.00;49.00
63013;DHT22;62113;45.624;11.700;2023-06-19T06:38:50;29.20;48.40
63013;DHT22;62113;45.624;11.700;2023-06-19T06:41:15;29.70;48.00
63013;DHT22;62113;45.624;11.700;2023-06-19T06:43:41;30.10;47.20
63013;DHT22;62113;45.624;11.700;2023-06-19T06:46:10;30.50;46.50
63013;DHT22;62113;45.624;11.700;2023-06-19T06:48:38;31.10;44.90
63013;DHT22;62113;45.624;11.700;2023-06-19T06:51:05;31.60;44.30
63013;DHT22;62113;45.624;11.700;2023-06-19T06:53:30;32.00;43.40
63013;DHT22;62113;45.624;11.700;2023-06-19T06:55:57;32.20;43.10
63013;DHT22;62113;45.624;11.700;2023-06-19T06:58:23;32.50;42.60
63013;DHT22;62113;45.624;11.700;2023-06-19T07:00:49;32.90;41.80
63013;DHT22;62113;45.624;11.700;2023-06-19T07:03:16;33.20;41.30
63013;DHT22;62113;45.624;11.700;2023-06-19T07:05:42;33.50;39.50
63013;DHT22;62113;45.624;11.700;2023-06-19T07:08:07;33.90;40.40
63013;DHT22;62113;45.624;11.700;2023-06-19T07:10:33;34.40;39.40
63013;DHT22;62113;45.624;11.700;2023-06-19T07:12:58;35.10;38.50
63013;DHT22;62113;45.624;11.700;2023-06-19T07:15:23;35.60;37.30
63013;DHT22;62113;45.624;11.700;2023-06-19T07:17:49;36.30;36.70
63013;DHT22;62113;45.624;11.700;2023-06-19T07:20:14;37.20;35.70
63013;DHT22;62113;45.624;11.700;2023-06-19T07:22:40;37.40;34.30
63013;DHT22;62113;45.624;11.700;2023-06-19T07:25:06;37.70;32.70
63013;DHT22;62113;45.624;11.700;2023-06-19T07:27:32;38.40;33.30
63013;DHT22;62113;45.624;11.700;2023-06-19T07:29:57;39.30;33.00
63013;DHT22;62113;45.624;11.700;2023-06-19T07:32:23;40.10;32.20
63013;DHT22;62113;45.624;11.700;2023-06-19T07:34:48;40.80;31.10
63013;DHT22;62113;45.624;11.700;2023-06-19T07:37:14;41.50;30.30
63013;DHT22;62113;45.624;11.700;2023-06-19T07:39:46;42.40;29.10
63013;DHT22;62113;45.624;11.700;2023-06-19T07:42:13;43.40;28.40
63013;DHT22;62113;45.624;11.700;2023-06-19T07:44:38;44.20;25.80
63013;DHT22;62113;45.624;11.700;2023-06-19T07:47:04;45.00;26.00
63013;DHT22;62113;45.624;11.700;2023-06-19T07:49:29;45.80;25.60
63013;DHT22;62113;45.624;11.700;2023-06-19T07:51:55;46.70;25.20
63013;DHT22;62113;45.624;11.700;2023-06-19T07:54:20;47.40;24.20
63013;DHT22;62113;45.624;11.700;2023-06-19T07:56:45;48.00;22.10
63013;DHT22;62113;45.624;11.700;2023-06-19T07:59:11;48.20;22.10
63013;DHT22;62113;45.624;11.700;2023-06-19T08:01:36;48.30;21.60
63013;DHT22;62113;45.624;11.700;2023-06-19T08:04:03;48.20;22.00
63013;DHT22;62113;45.624;11.700;2023-06-19T08:06:29;48.10;20.80
63013;DHT22;62113;45.624;11.700;2023-06-19T08:08:54;47.80;21.30
63013;DHT22;62113;45.624;11.700;2023-06-19T08:11:20;48.20;21.40
63013;DHT22;62113;45.624;11.700;2023-06-19T08:13:45;48.10;21.00
63013;DHT22;62113;45.624;11.700;2023-06-19T08:16:11;48.00;20.90
63013;DHT22;62113;45.624;11.700;2023-06-19T08:18:36;48.20;21.00
63013;DHT22;62113;45.624;11.700;2023-06-19T08:21:02;47.70;20.90
63013;DHT22;62113;45.624;11.700;2023-06-19T08:23:27;46.60;21.60
63013;DHT22;62113;45.624;11.700;2023-06-19T08:25:53;45.30;22.30
63013;DHT22;62113;45.624;11.700;2023-06-19T08:28:18;43.70;23.70
63013;DHT22;62113;45.624;11.700;2023-06-19T08:30:44;42.00;25.30
63013;DHT22;62113;45.624;11.700;2023-06-19T08:33:10;40.60;26.70
63013;DHT22;62113;45.624;11.700;2023-06-19T08:35:38;39.50;28.10
63013;DHT22;62113;45.624;11.700;2023-06-19T08:38:03;38.60;29.00
63013;DHT22;62113;45.624;11.700;2023-06-19T08:40:29;37.80;30.30
63013;DHT22;62113;45.624;11.700;2023-06-19T08:42:54;37.30;31.10
63013;DHT22;62113;45.624;11.700;2023-06-19T08:45:21;37.00;31.90
63013;DHT22;62113;45.624;11.700;2023-06-19T08:47:47;36.50;32.70
63013;DHT22;62113;45.624;11.700;2023-06-19T08:50:13;36.10;33.20
63013;DHT22;62113;45.624;11.700;2023-06-19T08:52:39;35.70;33.40
63013;DHT22;62113;45.624;11.700;2023-06-19T08:55:04;35.60;33.80
63013;DHT22;62113;45.624;11.700;2023-06-19T08:57:39;35.50;34.30
63013;DHT22;62113;45.624;11.700;2023-06-19T09:00:05;35.40;34.30
63013;DHT22;62113;45.624;11.700;2023-06-19T09:02:36;35.20;36.20
63013;DHT22;62113;45.624;11.700;2023-06-19T09:05:35;35.10;35.40
63013;DHT22;62113;45.624;11.700;2023-06-19T09:07:55;34.90;35.10
63013;DHT22;62113;45.624;11.700;2023-06-19T09:10:21;34.70;35.60
63013;DHT22;62113;45.624;11.700;2023-06-19T09:15:26;34.50;34.60
63013;DHT22;62113;45.624;11.700;2023-06-19T09:18:13;34.50;35.20
63013;DHT22;62113;45.624;11.700;2023-06-19T09:20:38;34.40;34.60
63013;DHT22;62113;45.624;11.700;2023-06-19T09:23:07;34.30;34.70
63013;DHT22;62113;45.624;11.700;2023-06-19T09:25:32;34.30;35.00
63013;DHT22;62113;45.624;11.700;2023-06-19T09:28:15;34.20;35.20
63013;DHT22;62113;45.624;11.700;2023-06-19T09:30:50;34.10;35.40
63013;DHT22;62113;45.624;11.700;2023-06-19T09:33:16;34.00;35.60
63013;DHT22;62113;45.624;11.700;2023-06-19T09:35:41;33.80;35.60
63013;DHT22;62113;45.624;11.700;2023-06-19T09:38:07;33.40;35.70
63013;DHT22;62113;45.624;11.700;2023-06-19T09:40:32;33.30;36.20
63013;DHT22;62113;45.624;11.700;2023-06-19T09:42:58;33.20;36.60
63013;DHT22;62113;45.624;11.700;2023-06-19T09:45:24;33.30;36.70
63013;DHT22;62113;45.624;11.700;2023-06-19T09:47:52;33.50;36.70
63013;DHT22;62113;45.624;11.700;2023-06-19T09:50:18;33.70;36.70
63013;DHT22;62113;45.624;11.700;2023-06-19T09:52:47;33.70;36.80
63013;DHT22;62113;45.624;11.700;2023-06-19T09:55:16;33.70;36.20
63013;DHT22;62113;45.624;11.700;2023-06-19T09:57:44;33.50;36.60
63013;DHT22;62113;45.624;11.700;2023-06-19T10:00:10;33.30;36.50
63013;DHT22;62113;45.624;11.700;2023-06-19T10:02:42;33.10;37.10
63013;DHT22;62113;45.624;11.700;2023-06-19T10:05:08;32.90;37.00
63013;DHT22;62113;45.624;11.700;2023-06-19T10:07:37;32.90;37.30
63013;DHT22;62113;45.624;11.700;2023-06-19T10:10:03;32.90;38.30
63013;DHT22;62113;45.624;11.700;2023-06-19T10:12:36;33.00;38.00
63013;DHT22;62113;45.624;11.700;2023-06-19T10:15:18;33.10;37.60
63013;DHT22;62113;45.624;11.700;2023-06-19T10:17:45;33.20;37.50
63013;DHT22;62113;45.624;11.700;2023-06-19T10:25:31;33.30;37.20
63013;DHT22;62113;45.624;11.700;2023-06-19T10:27:57;33.20;36.80
63013;DHT22;62113;45.624;11.700;2023-06-19T10:30:23;33.10;36.80
63013;DHT22;62113;45.624;11.700;2023-06-19T10:32:49;33.10;36.70
63013;DHT22;62113;45.624;11.700;2023-06-19T10:35:15;33.10;36.40
63013;DHT22;62113;45.624;11.700;2023-06-19T10:37:41;33.10;37.10
63013;DHT22;62113;45.624;11.700;2023-06-19T10:40:07;33.00;37.40
63013;DHT22;62113;45.624;11.700;2023-06-19T10:42:37;32.90;37.20
63013;DHT22;62113;45.624;11.700;2023-06-19T10:45:03;32.70;37.30
63013;DHT22;62113;45.624;11.700;2023-06-19T10:47:29;32.70;37.50
63013;DHT22;62113;45.624;11.700;2023-06-19T10:49:55;32.90;38.30
63013;DHT22;62113;45.624;11.700;2023-06-19T10:52:20;32.80;37.60
63013;DHT22;62113;45.624;11.700;2023-06-19T10:54:46;32.80;37.40
63013;DHT22;62113;45.624;11.700;2023-06-19T10:57:17;32.70;37.70
63013;DHT22;62113;45.624;11.700;2023-06-19T10:59:43;32.90;38.60
63013;DHT22;62113;45.624;11.700;2023-06-19T11:02:09;32.80;38.20
63013;DHT22;62113;45.624;11.700;2023-06-19T11:04:37;32.70;39.70
63013;DHT22;62113;45.624;11.700;2023-06-19T11:07:04;32.50;39.40
63013;DHT22;62113;45.624;11.700;2023-06-19T11:09:30;32.40;38.70
63013;DHT22;62113;45.624;11.700;2023-06-19T11:11:55;32.50;38.90
63013;DHT22;62113;45.624;11.700;2023-06-19T11:14:21;32.60;39.00
63013;DHT22;62113;45.624;11.700;2023-06-19T11:16:47;32.70;38.80
63013;DHT22;62113;45.624;11.700;2023-06-19T11:19:16;32.80;38.60
63013;DHT22;62113;45.624;11.700;2023-06-19T11:21:44;32.70;39.00
63013;DHT22;62113;45.624;11.700;2023-06-19T11:24:11;32.70;39.50
63013;DHT22;62113;45.624;11.700;2023-06-19T11:27:13;32.70;39.40
63013;DHT22;62113;45.624;11.700;2023-06-19T11:29:30;32.70;39.80
63013;DHT22;62113;45.624;11.700;2023-06-19T11:32:07;32.80;39.90
63013;DHT22;62113;45.624;11.700;2023-06-19T11:34:34;32.70;39.30
63013;DHT22;62113;45.624;11.700;2023-06-19T11:37:14;32.70;39.60
63013;DHT22;62113;45.624;11.700;2023-06-19T11:39:40;32.80;39.70
63013;DHT22;62113;45.624;11.700;2023-06-19T11:42:07;32.80;39.50
63013;DHT22;62113;45.624;11.700;2023-06-19T11:44:33;32.90;39.50
63013;DHT22;62113;45.624;11.700;2023-06-19T11:46:58;33.00;39.60
63013;DHT22;62113;45.624;11.700;2023-06-19T11:49:24;33.10;39.50
63013;DHT22;62113;45.624;11.700;2023-06-19T11:51:50;33.10;39.60
63013;DHT22;62113;45.624;11.700;2023-06-19T11:54:15;33.10;39.60
63013;DHT22;62113;45.624;11.700;2023-06-19T11:56:41;33.20;39.60
63013;DHT22;62113;45.624;11.700;2023-06-19T11:59:07;33.10;39.40
63013;DHT22;62113;45.624;11.700;2023-06-19T12:01:33;33.10;39.30
63013;DHT22;62113;45.624;11.700;2023-06-19T12:03:59;33.10;39.60
63013;DHT22;62113;45.624;11.700;2023-06-19T12:06:25;33.10;39.50
63013;DHT22;62113;45.624;11.700;2023-06-19T12:08:51;33.10;39.80
63013;DHT22;62113;45.624;11.700;2023-06-19T12:11:17;33.10;40.30
63013;DHT22;62113;45.624;11.700;2023-06-19T12:13:42;33.10;40.30
63013;DHT22;62113;45.624;11.700;2023-06-19T12:16:09;33.00;40.30
63013;DHT22;62113;45.624;11.700;2023-06-19T12:18:35;33.10;40.40
63013;DHT22;62113;45.624;11.700;2023-06-19T12:21:00;33.10;40.20
63013;DHT22;62113;45.624;11.700;2023-06-19T12:23:26;33.10;39.50
63013;DHT22;62113;45.624;11.700;2023-06-19T12:25:51;33.20;39.40
63013;DHT22;62113;45.624;11.700;2023-06-19T12:28:17;33.20;38.60
63013;DHT22;62113;45.624;11.700;2023-06-19T12:30:44;33.20;36.80
63013;DHT22;62113;45.624;11.700;2023-06-19T12:33:09;33.20;37.60
63013;DHT22;62113;45.624;11.700;2023-06-19T12:35:35;33.20;37.60
63013;DHT22;62113;45.624;11.700;2023-06-19T12:38:01;33.20;37.50
63013;DHT22;62113;45.624;11.700;2023-06-19T12:40:27;33.20;37.80
63013;DHT22;62113;45.624;11.700;2023-06-19T12:42:52;33.20;37.40
63013;DHT22;62113;45.624;11.700;2023-06-19T12:45:18;33.20;37.40
63013;DHT22;62113;45.624;11.700;2023-06-19T12:47:43;33.10;37.60
63013;DHT22;62113;45.624;11.700;2023-06-19T12:50:09;33.10;36.80
63013;DHT22;62113;45.624;11.700;2023-06-19T12:52:36;33.10;36.50
63013;DHT22;62113;45.624;11.700;2023-06-19T12:55:02;33.20;36.40
63013;DHT22;62113;45.624;11.700;2023-06-19T12:57:27;33.20;36.00
63013;DHT22;62113;45.624;11.700;2023-06-19T12:59:53;33.20;35.60
63013;DHT22;62113;45.624;11.700;2023-06-19T13:02:18;33.20;35.80
63013;DHT22;62113;45.624;11.700;2023-06-19T13:04:44;33.10;35.80
63013;DHT22;62113;45.624;11.700;2023-06-19T13:07:09;33.10;35.70
63013;DHT22;62113;45.624;11.700;2023-06-19T13:09:35;33.10;35.50
63013;DHT22;62113;45.624;11.700;2023-06-19T13:12:01;33.10;35.40
63013;DHT22;62113;45.624;11.700;2023-06-19T13:14:27;33.10;34.70
63013;DHT22;62113;45.624;11.700;2023-06-19T13:16:52;33.10;35.00
63013;DHT22;62113;45.624;11.700;2023-06-19T13:19:18;33.10;35.10
63013;DHT22;62113;45.624;11.700;2023-06-19T13:21:44;33.20;35.50
63013;DHT22;62113;45.624;11.700;2023-06-19T13:24:10;33.20;35.50
63013;DHT22;62113;45.624;11.700;2023-06-19T13:26:35;33.20;36.00
63013;DHT22;62113;45.624;11.700;2023-06-19T13:29:01;33.10;35.70
63013;DHT22;62113;45.624;11.700;2023-06-19T13:31:27;33.10;35.80
63013;DHT22;62113;45.624;11.700;2023-06-19T13:33:52;33.00;36.20
63013;DHT22;62113;45.624;11.700;2023-06-19T13:36:18;33.10;36.30
63013;DHT22;62113;45.624;11.700;2023-06-19T13:38:48;33.10;36.30
63013;DHT22;62113;45.624;11.700;2023-06-19T13:41:14;33.10;36.40
63013;DHT22;62113;45.624;11.700;2023-06-19T13:43:39;33.10;36.00
63013;DHT22;62113;45.624;11.700;2023-06-19T13:46:05;33.10;34.50
63013;DHT22;62113;45.624;11.700;2023-06-19T13:48:31;33.10;34.60
63013;DHT22;62113;45.624;11.700;2023-06-19T13:50:57;33.10;34.10
63013;DHT22;62113;45.624;11.700;2023-06-19T13:53:24;33.10;34.30
63013;DHT22;62113;45.624;11.700;2023-06-19T13:55:50;33.00;34.30
63013;DHT22;62113;45.624;11.700;2023-06-19T13:58:15;32.80;34.40
63013;DHT22;62113;45.624;11.700;2023-06-19T14:00:41;32.80;35.00
63013;DHT22;62113;45.624;11.700;2023-06-19T14:03:06;32.80;35.50
63013;DHT22;62113;45.624;11.700;2023-06-19T14:05:32;32.70;35.40
63013;DHT22;62113;45.624;11.700;2023-06-19T14:07:58;32.70;35.80
63013;DHT22;62113;45.624;11.700;2023-06-19T14:10:24;32.60;34.80
63013;DHT22;62113;45.624;11.700;2023-06-19T14:12:50;32.60;33.70
63013;DHT22;62113;45.624;11.700;2023-06-19T14:15:15;32.50;34.70
63013;DHT22;62113;45.624;11.700;2023-06-19T14:17:41;32.50;34.90
63013;DHT22;62113;45.624;11.700;2023-06-19T14:20:07;32.50;35.90
63013;DHT22;62113;45.624;11.700;2023-06-19T14:22:34;32.40;36.00
63013;DHT22;62113;45.624;11.700;2023-06-19T14:24:59;32.50;36.30
63013;DHT22;62113;45.624;11.700;2023-06-19T14:27:27;32.50;36.10
63013;DHT22;62113;45.624;11.700;2023-06-19T14:29:56;32.50;36.70
63013;DHT22;62113;45.624;11.700;2023-06-19T14:32:22;32.50;36.20
63013;DHT22;62113;45.624;11.700;2023-06-19T14:34:48;32.40;36.50
63013;DHT22;62113;45.624;11.700;2023-06-19T14:37:14;32.40;36.70
63013;DHT22;62113;45.624;11.700;2023-06-19T14:39:39;32.40;36.80
63013;DHT22;62113;45.624;11.700;2023-06-19T14:42:05;32.40;36.70
63013;DHT22;62113;45.624;11.700;2023-06-19T14:44:30;32.40;36.80
63013;DHT22;62113;45.624;11.700;2023-06-19T14:46:57;32.40;36.40
63013;DHT22;62113;45.624;11.700;2023-06-19T14:49:23;32.50;36.70
63013;DHT22;62113;45.624;11.700;2023-06-19T14:51:48;32.40;36.30
63013;DHT22;62113;45.624;11.700;2023-06-19T14:54:14;32.40;36.60
63013;DHT22;62113;45.624;11.700;2023-06-19T14:56:45;32.50;37.00
63013;DHT22;62113;45.624;11.700;2023-06-19T14:59:13;32.50;37.40
63013;DHT22;62113;45.624;11.700;2023-06-19T15:01:39;32.40;36.80
63013;DHT22;62113;45.624;11.700;2023-06-19T15:04:05;32.50;36.70
63013;DHT22;62113;45.624;11.700;2023-06-19T15:06:31;32.50;36.60
63013;DHT22;62113;45.624;11.700;2023-06-19T15:08:56;32.50;38.00
63013;DHT22;62113;45.624;11.700;2023-06-19T15:11:22;32.40;37.10
63013;DHT22;62113;45.624;11.700;2023-06-19T15:13:47;32.40;36.80
63013;DHT22;62113;45.624;11.700;2023-06-19T15:16:12;32.40;36.90
63013;DHT22;62113;45.624;11.700;2023-06-19T15:18:38;32.40;37.70
63013;DHT22;62113;45.624;11.700;2023-06-19T15:21:04;32.30;37.70
63013;DHT22;62113;45.624;11.700;2023-06-19T15:23:31;32.40;37.80